Time;durP1;ratioP1;P1;durP2;ratioP2;P2;SDS_P1;SDS_P2;PMS_P1;PMS_P2;Temp;Humidity;BMP_temperature;BMP_pressure;BME280_temperature;BME280_humidity;BME280_pressure;Samples;Min_cycle;Max_cycle;Signal;HPM_P1;HPM_P2
2024/01/09 00:01:25;;;;;;;18.00;10.10;;;-6.10;61.40;;;;;;5184097;28;20029;-30
2024/01/09 00:03:59;;;;;;;20.33;8.73;;;-6.10;12.20;;;;;;5182205;28;20060;-30
2024/01/09 00:06:30;;;;;;;19.33;9.90;;;-6.10;36.50;;;;;;5182330;28;20047;-30
2024/01/09 00:09:02;;;;;;;23.77;10.27;;;-6.20;5.20;;;;;;5189054;28;20048;-30
2024/01/09 00:11:36;;;;;;;19.70;10.03;;;-6.20;1.00;;;;;;5186965;28;20038;-30
2024/01/09 00:14:11;;;;;;;22.33;10.18;;;-6.20;15.70;;;;;;5184064;28;20041;-30
2024/01/09 00:16:45;;;;;;;22.00;11.03;;;-6.20;1.00;;;;;;5185410;28;20306;-31
2024/01/09 00:19:16;;;;;;;21.55;10.10;;;-6.20;1.00;;;;;;5188506;28;20030;-31
2024/01/09 00:21:49;;;;;;;22.70;11.33;;;-6.20;1.00;;;;;;5187395;28;20063;-30
2024/01/09 00:24:20;;;;;;;22.73;10.45;;;-6.20;1.00;;;;;;5170283;28;20048;-30
2024/01/09 00:26:52;;;;;;;24.30;10.20;;;-6.20;1.00;;;;;;5175688;28;20037;-30
2024/01/09 00:29:23;;;;;;;20.23;10.97;;;-6.30;1.00;;;;;;5205459;28;20030;-30
2024/01/09 00:32:01;;;;;;;23.57;10.67;;;-6.30;1.00;;;;;;5203214;28;20035;-30
2024/01/09 00:34:33;;;;;;;21.57;10.97;;;-6.30;1.00;;;;;;5193300;28;20205;-30
2024/01/09 00:37:12;;;;;;;17.83;9.70;;;-6.30;1.00;;;;;;5186791;28;20030;-30
2024/01/09 00:39:50;;;;;;;22.93;11.07;;;-6.30;1.00;;;;;;5175593;28;20025;-30
2024/01/09 00:42:24;;;;;;;21.47;10.00;;;-6.30;1.00;;;;;;5167701;28;20026;-30
2024/01/09 00:44:55;;;;;;;23.80;10.35;;;-6.30;1.00;;;;;;5174046;28;20037;-30
2024/01/09 00:47:28;;;;;;;16.93;9.20;;;-6.30;1.00;;;;;;5182215;28;20245;-30
2024/01/09 00:49:59;;;;;;;22.52;10.20;;;-6.30;1.00;;;;;;5180821;28;20030;-31
2024/01/09 00:52:32;;;;;;;24.43;11.10;;;-6.30;1.00;;;;;;5177357;28;20215;-30
2024/01/09 00:55:06;;;;;;;22.73;10.57;;;-6.30;1.00;;;;;;5185762;28;20333;-31
2024/01/09 00:57:38;;;;;;;19.80;10.50;;;-6.30;1.00;;;;;;5169002;28;20044;-30
2024/01/09 01:00:15;;;;;;;20.03;10.37;;;-6.30;1.00;;;;;;5180512;28;20034;-31
2024/01/09 01:02:52;;;;;;;18.90;10.13;;;-6.40;1.00;;;;;;5178954;28;20033;-31
2024/01/09 01:05:25;;;;;;;19.50;11.17;;;-6.40;1.00;;;;;;5152814;28;20044;-31
2024/01/09 01:07:59;;;;;;;19.85;10.85;;;-6.40;1.00;;;;;;5170426;28;20045;-31
2024/01/09 01:10:30;;;;;;;21.38;11.55;;;-6.40;1.00;;;;;;5179763;28;20042;-31
2024/01/09 01:13:02;;;;;;;16.77;8.60;;;-6.40;1.00;;;;;;5185572;28;20030;-31
2024/01/09 01:15:33;;;;;;;23.27;9.93;;;-6.40;1.00;;;;;;5166282;28;20044;-31
2024/01/09 01:18:07;;;;;;;22.23;10.80;;;-6.40;1.00;;;;;;5187910;28;20034;-31
2024/01/09 01:20:38;;;;;;;21.15;10.40;;;-6.50;1.00;;;;;;5187600;28;20221;-31
2024/01/09 01:23:14;;;;;;;21.83;11.53;;;-6.50;1.00;;;;;;5186749;28;20305;-31
2024/01/09 01:25:46;;;;;;;23.00;11.90;;;-6.50;1.00;;;;;;5185672;28;20044;-31
2024/01/09 01:28:17;;;;;;;18.80;9.90;;;-6.50;1.00;;;;;;5164214;28;20037;-31
2024/01/09 01:30:48;;;;;;;15.67;8.73;;;-6.60;1.00;;;;;;5174562;28;20033;-31
2024/01/09 01:33:22;;;;;;;21.73;11.40;;;-6.60;1.00;;;;;;5182802;28;20044;-31
2024/01/09 01:35:56;;;;;;;20.27;9.87;;;-6.60;1.00;;;;;;5171800;28;20326;-31
2024/01/09 01:38:27;;;;;;;26.37;11.17;;;-6.60;1.00;;;;;;5170709;28;20031;-29
2024/01/09 01:41:01;;;;;;;21.90;10.83;;;-6.60;1.00;;;;;;5182456;28;20093;-31
2024/01/09 01:43:32;;;;;;;16.95;8.93;;;-6.70;1.00;;;;;;5152880;28;20054;-30
2024/01/09 01:46:07;;;;;;;21.73;9.97;;;-6.70;1.00;;;;;;5145194;28;20042;-30
2024/01/09 01:48:38;;;;;;;19.93;10.17;;;-6.80;1.00;;;;;;5187256;28;20037;-30
2024/01/09 01:51:12;;;;;;;17.43;9.97;;;-6.80;1.00;;;;;;5190933;28;20213;-30
2024/01/09 01:53:43;;;;;;;23.85;11.38;;;-6.80;1.00;;;;;;5190863;28;20034;-30
2024/01/09 01:56:14;;;;;;;22.37;10.43;;;-6.90;1.00;;;;;;5172534;28;20328;-33
2024/01/09 01:58:46;;;;;;;18.07;9.57;;;-6.90;1.00;;;;;;5187373;28;20368;-29
2024/01/09 02:01:17;;;;;;;20.67;10.73;;;-6.90;1.00;;;;;;5174853;28;20231;-30
2024/01/09 02:03:49;;;;;;;21.00;11.23;;;-6.90;1.00;;;;;;5188780;28;20042;-30
2024/01/09 02:06:20;;;;;;;20.27;11.07;;;-6.90;1.00;;;;;;5169242;28;20256;-30
2024/01/09 02:08:56;;;;;;;25.37;11.50;;;-6.90;1.00;;;;;;5168651;28;20061;-29
2024/01/09 02:11:28;;;;;;;17.90;10.37;;;-6.90;1.00;;;;;;5171928;28;20268;-30
2024/01/09 02:14:04;;;;;;;22.10;9.93;;;-6.90;1.00;;;;;;5187667;28;20038;-30
2024/01/09 02:16:42;;;;;;;23.33;10.53;;;-6.90;1.00;;;;;;5195681;28;20038;-30
2024/01/09 02:19:14;;;;;;;23.40;10.83;;;-7.00;1.00;;;;;;5173015;28;20042;-30
2024/01/09 02:21:47;;;;;;;23.37;11.20;;;-7.00;1.00;;;;;;5173021;28;20041;-29
2024/01/09 02:24:18;;;;;;;23.33;10.32;;;-7.00;1.00;;;;;;5190424;28;20034;-29
2024/01/09 02:27:02;;;;;;;20.43;10.77;;;-7.00;1.00;;;;;;5184052;28;20545;-30
2024/01/09 02:29:37;;;;;;;19.05;9.43;;;-7.00;1.00;;;;;;5155742;28;20234;-29
2024/01/09 02:32:14;;;;;;;19.50;9.93;;;-7.00;1.00;;;;;;5186984;28;20041;-30
2024/01/09 02:34:50;;;;;;;21.97;10.73;;;-7.00;1.00;;;;;;5190511;28;20022;-30
2024/01/09 02:37:26;;;;;;;20.93;10.63;;;-7.00;1.00;;;;;;5190011;28;20029;-30
2024/01/09 02:40:00;;;;;;;22.30;8.83;;;-7.00;1.00;;;;;;5186369;28;20302;-30
2024/01/09 02:42:33;;;;;;;21.07;10.60;;;-7.00;1.00;;;;;;5188185;28;20042;-30
2024/01/09 02:45:07;;;;;;;21.10;10.43;;;-7.00;1.00;;;;;;5155999;28;20030;-30
2024/01/09 02:47:39;;;;;;;19.53;10.13;;;-7.00;1.00;;;;;;5154413;28;20030;-30
2024/01/09 02:50:24;;;;;;;20.57;10.83;;;-7.00;1.00;;;;;;5190063;28;20025;-30
2024/01/09 02:52:56;;;;;;;22.40;11.43;;;-7.10;1.00;;;;;;5164763;28;20038;-30
2024/01/09 02:55:27;;;;;;;21.90;10.57;;;-7.10;1.00;;;;;;5158449;28;20056;-30
2024/01/09 02:57:58;;;;;;;24.27;10.77;;;-7.10;1.00;;;;;;5132566;28;20208;-30
2024/01/09 03:00:30;;;;;;;21.97;10.43;;;-7.10;1.00;;;;;;5140850;28;20065;-30
2024/01/09 03:03:01;;;;;;;18.27;9.67;;;-7.20;1.00;;;;;;5168099;28;20243;-30
2024/01/09 03:05:38;;;;;;;20.77;10.13;;;-7.20;1.00;;;;;;5167135;28;20053;-30
2024/01/09 03:08:12;;;;;;;20.20;10.47;;;-7.20;1.00;;;;;;5166974;28;20381;-32
2024/01/09 03:10:45;;;;;;;21.60;10.88;;;-7.30;1.00;;;;;;5169337;28;20018;-30
2024/01/09 03:13:19;;;;;;;22.13;9.35;;;-7.30;1.00;;;;;;5151606;28;20170;-30
2024/01/09 03:15:50;;;;;;;;;;;-7.30;1.00;;;;;;5153450;28;20372;-30
2024/01/09 03:18:24;;;;;;;21.30;10.57;;;-7.30;1.00;;;;;;5189102;28;19913;-30
2024/01/09 03:20:58;;;;;;;;;;;-7.30;1.00;;;;;;5162585;28;20030;-30
2024/01/09 03:23:29;;;;;;;19.23;10.52;;;-7.30;1.00;;;;;;5170142;28;20107;-30
2024/01/09 03:26:03;;;;;;;22.67;10.60;;;-7.30;1.00;;;;;;5177195;28;20029;-30
2024/01/09 03:28:36;;;;;;;24.27;10.87;;;-7.30;1.00;;;;;;5188839;28;20045;-30
2024/01/09 03:31:17;;;;;;;20.77;9.85;;;-7.30;1.00;;;;;;5162459;28;20042;-30
2024/01/09 03:33:49;;;;;;;21.20;9.97;;;-7.30;1.00;;;;;;5189008;28;20234;-30
2024/01/09 03:36:20;;;;;;;23.47;10.67;;;-7.30;1.00;;;;;;5172576;28;20026;-30
2024/01/09 03:38:52;;;;;;;21.83;9.57;;;-7.30;1.00;;;;;;5167584;28;20034;-30
2024/01/09 03:41:26;;;;;;;21.27;10.83;;;-7.30;1.00;;;;;;5167026;28;20014;-30
2024/01/09 03:43:57;;;;;;;17.52;9.23;;;-7.30;1.00;;;;;;5168305;28;20206;-30
2024/01/09 03:46:29;;;;;;;21.63;9.63;;;-7.30;1.00;;;;;;5155286;28;20029;-30
2024/01/09 03:49:02;;;;;;;18.90;10.53;;;-7.30;1.00;;;;;;5166624;28;20044;-30
2024/01/09 03:51:36;;;;;;;19.58;10.80;;;-7.30;1.00;;;;;;5166174;28;20034;-30
2024/01/09 03:54:14;;;;;;;21.07;10.07;;;-7.40;1.00;;;;;;5157697;28;20158;-30
2024/01/09 03:56:48;;;;;;;28.07;10.80;;;-7.40;1.00;;;;;;5152254;28;20385;-30
2024/01/09 03:59:23;;;;;;;19.37;10.10;;;-7.40;1.00;;;;;;5148112;28;20050;-31
2024/01/09 04:01:54;;;;;;;20.00;10.35;;;-7.40;1.00;;;;;;5144512;28;20226;-30
2024/01/09 04:04:28;;;;;;;20.00;9.40;;;-7.40;1.00;;;;;;5151198;28;20053;-30
2024/01/09 04:06:59;;;;;;;;;;;-7.50;1.00;;;;;;5168632;28;20022;-30
2024/01/09 04:09:32;;;;;;;25.97;11.17;;;-7.50;1.00;;;;;;5165262;28;19916;-30
2024/01/09 04:12:06;;;;;;;;;;;-7.50;1.00;;;;;;5159473;28;20279;-30
2024/01/09 04:14:37;;;;;;;21.97;11.37;;;-7.50;1.00;;;;;;5167145;28;19921;-30
2024/01/09 04:17:12;;;;;;;25.20;11.03;;;-7.50;1.00;;;;;;5163617;28;20033;-30
2024/01/09 04:19:46;;;;;;;22.13;10.47;;;-7.60;1.00;;;;;;5168237;28;20040;-30
2024/01/09 04:22:18;;;;;;;22.60;10.70;;;-7.60;1.00;;;;;;5151340;28;20034;-30
2024/01/09 04:24:51;;;;;;;23.87;10.90;;;-7.50;1.00;;;;;;5146843;28;20050;-30
2024/01/09 04:27:23;;;;;;;25.17;11.73;;;-7.50;1.00;;;;;;5152158;28;20042;-30
2024/01/09 04:30:03;;;;;;;21.90;10.30;;;-7.60;1.00;;;;;;5166049;28;20318;-31
2024/01/09 04:32:35;;;;;;;24.77;10.80;;;-7.60;1.00;;;;;;5166608;28;20041;-30
2024/01/09 04:35:06;;;;;;;20.67;10.63;;;-7.60;1.00;;;;;;5165547;28;20023;-30
2024/01/09 04:37:42;;;;;;;19.43;10.07;;;-7.50;1.00;;;;;;5167735;28;20040;-30
2024/01/09 04:40:13;;;;;;;20.77;10.70;;;-7.50;1.00;;;;;;5169061;28;20230;-31
2024/01/09 04:42:45;;;;;;;25.73;11.47;;;-7.60;1.00;;;;;;5160529;28;20057;-31
2024/01/09 04:45:17;;;;;;;22.20;10.43;;;-7.60;1.00;;;;;;5131572;28;20038;-30
2024/01/09 04:47:48;;;;;;;22.13;10.70;;;-7.60;1.00;;;;;;5155203;28;20030;-30
2024/01/09 04:50:19;;;;;;;20.87;9.50;;;-7.70;1.00;;;;;;5149944;28;20034;-30
2024/01/09 04:52:50;;;;;;;22.03;10.67;;;-7.70;1.00;;;;;;5167098;28;20034;-30
2024/01/09 04:55:22;;;;;;;23.03;10.57;;;-7.70;1.00;;;;;;5167702;28;20241;-30
2024/01/09 04:57:53;;;;;;;25.93;10.90;;;-7.70;1.00;;;;;;5166534;28;20373;-30
2024/01/09 05:00:27;;;;;;;23.30;11.70;;;-7.70;1.00;;;;;;5130554;28;20030;-30
2024/01/09 05:02:58;;;;;;;19.27;9.90;;;-7.70;1.00;;;;;;5145827;28;20036;-30
2024/01/09 05:05:32;;;;;;;23.20;11.33;;;-7.80;1.00;;;;;;5153834;28;20034;-32
2024/01/09 05:08:06;;;;;;;26.73;10.50;;;-7.80;1.00;;;;;;5165424;28;20042;-30
2024/01/09 05:10:37;;;;;;;26.10;11.57;;;-7.80;1.00;;;;;;5167076;28;20030;-30
2024/01/09 05:13:11;;;;;;;27.53;12.17;;;-7.80;1.00;;;;;;5151903;28;20034;-30
2024/01/09 05:15:42;;;;;;;;;;;-7.90;1.00;;;;;;5164529;28;20038;-30
2024/01/09 05:18:13;;;;;;;22.13;11.97;;;-7.90;1.00;;;;;;5167503;28;19910;-30
2024/01/09 05:20:44;;;;;;;21.77;10.97;;;-7.80;1.00;;;;;;5165621;28;20041;-30
2024/01/09 05:23:15;;;;;;;21.73;11.03;;;-7.90;1.00;;;;;;5166709;28;20044;-31
2024/01/09 05:25:47;;;;;;;21.57;10.13;;;-7.80;1.00;;;;;;5149606;28;20202;-31
2024/01/09 05:28:18;;;;;;;24.60;11.37;;;-7.80;1.00;;;;;;5166475;28;20038;-31
2024/01/09 05:30:49;;;;;;;27.03;10.60;;;-7.80;1.00;;;;;;5146060;28;20032;-31
2024/01/09 05:33:20;;;;;;;19.90;10.83;;;-7.80;1.00;;;;;;5163565;28;20218;-31
2024/01/09 05:35:54;;;;;;;21.73;11.53;;;-7.90;1.00;;;;;;5139697;28;20041;-31
2024/01/09 05:38:32;;;;;;;30.23;11.97;;;-7.90;1.00;;;;;;5163548;28;20360;-31
2024/01/09 05:41:09;;;;;;;24.40;10.83;;;-7.90;1.00;;;;;;5141141;28;20031;-31
2024/01/09 05:43:43;;;;;;;26.07;11.30;;;-8.00;1.00;;;;;;5167236;28;20030;-36
2024/01/09 05:46:16;;;;;;;;;;;-8.00;1.00;;;;;;5164702;28;20026;-31
2024/01/09 05:48:48;;;;;;;21.20;11.02;;;-8.00;1.00;;;;;;5147960;28;20381;-30
2024/01/09 05:51:22;;;;;;;22.60;10.97;;;-8.00;1.00;;;;;;5163179;28;20052;-30
2024/01/09 05:54:00;;;;;;;21.63;11.17;;;-8.00;1.00;;;;;;5164709;28;20056;-31
2024/01/09 05:56:34;;;;;;;22.43;11.03;;;-8.00;1.00;;;;;;5142015;28;20322;-30
2024/01/09 05:59:08;;;;;;;20.57;10.30;;;-8.10;1.00;;;;;;5133165;28;20039;-30
2024/01/09 06:01:39;;;;;;;22.65;10.82;;;-8.10;1.00;;;;;;5149998;28;20322;-30
2024/01/09 06:04:12;;;;;;;26.90;11.57;;;-8.10;1.00;;;;;;5166803;28;20062;-33
2024/01/09 06:06:44;;;;;;;24.75;11.07;;;-8.10;1.00;;;;;;5134970;28;20048;-31
2024/01/09 06:09:15;;;;;;;22.13;10.80;;;-8.10;1.00;;;;;;5165680;28;20038;-30
2024/01/09 06:11:52;;;;;;;20.80;9.53;;;-8.10;1.00;;;;;;5164099;28;20034;-30
2024/01/09 06:14:24;;;;;;;26.43;12.37;;;-8.00;1.00;;;;;;5165595;28;20026;-31
2024/01/09 06:16:57;;;;;;;23.30;11.53;;;-8.00;1.00;;;;;;5158386;28;20041;-31
2024/01/09 06:19:29;;;;;;;22.70;11.43;;;-8.00;1.00;;;;;;5161636;28;20206;-31
2024/01/09 06:22:00;;;;;;;26.90;10.83;;;-8.10;1.00;;;;;;5166278;28;20018;-31
2024/01/09 06:24:35;;;;;;;23.13;11.33;;;-8.00;1.00;;;;;;5169681;28;20041;-31
2024/01/09 06:27:09;;;;;;;23.23;11.57;;;-8.10;1.00;;;;;;5167083;28;20315;-31
2024/01/09 06:29:40;;;;;;;27.17;12.48;;;-8.10;1.00;;;;;;5168514;28;20235;-30
2024/01/09 06:32:12;;;;;;;24.20;11.53;;;-8.10;1.00;;;;;;5166764;28;20036;-31
2024/01/09 06:34:49;;;;;;;25.83;12.17;;;-8.10;1.00;;;;;;5152857;28;20047;-31
2024/01/09 06:37:21;;;;;;;21.57;10.80;;;-8.10;1.00;;;;;;5153249;28;20026;-30
2024/01/09 06:39:54;;;;;;;22.93;11.33;;;-8.10;1.00;;;;;;5152876;28;20047;-31
2024/01/09 06:42:27;;;;;;;25.85;10.93;;;-8.10;1.00;;;;;;5167310;28;20242;-31
2024/01/09 06:45:01;;;;;;;22.42;10.30;;;-8.10;1.00;;;;;;5152391;28;20038;-31
2024/01/09 06:47:33;;;;;;;;;;;-8.10;1.00;;;;;;5163678;28;20057;-31
2024/01/09 06:50:07;;;;;;;17.80;10.50;;;-8.20;1.00;;;;;;5151846;28;19985;-31
2024/01/09 06:52:41;;;;;;;23.13;11.33;;;-8.10;1.00;;;;;;5174477;28;20040;-31
2024/01/09 06:55:15;;;;;;;25.10;11.00;;;-8.10;1.00;;;;;;5188305;28;20038;-31
2024/01/09 06:57:53;;;;;;;21.43;10.87;;;-8.10;1.00;;;;;;5184071;28;20026;-31
2024/01/09 07:00:29;;;;;;;23.57;11.67;;;-8.10;1.00;;;;;;5151531;28;20034;-31
2024/01/09 07:03:00;;;;;;;22.57;10.50;;;-8.10;1.00;;;;;;5187825;28;20121;-31
2024/01/09 07:05:34;;;;;;;23.57;10.87;;;-8.00;1.00;;;;;;5189941;28;20219;-31
2024/01/09 07:08:09;;;;;;;23.08;11.23;;;-8.00;1.00;;;;;;5187873;28;20048;-31
2024/01/09 07:10:47;;;;;;;21.93;10.20;;;-8.00;1.00;;;;;;5186169;28;20346;-31
2024/01/09 07:13:18;;;;;;;26.13;10.93;;;-8.00;1.00;;;;;;5178811;28;20229;-31
2024/01/09 07:15:49;;;;;;;19.90;10.83;;;-8.00;1.00;;;;;;5168767;28;20030;-31
2024/01/09 07:18:24;;;;;;;23.27;10.37;;;-8.00;1.00;;;;;;5189840;28;20033;-31
2024/01/09 07:20:55;;;;;;;23.53;11.63;;;-7.90;1.00;;;;;;5189360;28;20018;-31
2024/01/09 07:23:26;;;;;;;24.03;11.40;;;-7.90;1.00;;;;;;5172403;28;20314;-31
2024/01/09 07:26:02;;;;;;;22.17;11.17;;;-7.90;1.00;;;;;;5189141;28;20306;-31
2024/01/09 07:28:33;;;;;;;21.07;11.00;;;-8.00;1.00;;;;;;5185692;28;20262;-31
2024/01/09 07:31:07;;;;;;;23.43;11.47;;;-7.90;1.00;;;;;;5182796;28;20246;-31
2024/01/09 07:33:41;;;;;;;24.10;11.33;;;-7.90;1.00;;;;;;5188539;28;20022;-31
2024/01/09 07:36:12;;;;;;;22.73;11.53;;;-7.90;1.00;;;;;;5187272;28;20608;-31
2024/01/09 07:38:46;;;;;;;21.97;10.47;;;-7.90;1.00;;;;;;5171577;28;20026;-31
2024/01/09 07:41:17;;;;;;;;;;;-7.90;1.00;;;;;;5189795;28;20030;-31
2024/01/09 07:43:48;;;;;;;27.00;11.83;;;-7.90;1.00;;;;;;5189836;28;19988;-31
2024/01/09 07:46:25;;;;;;;23.33;11.57;;;-7.80;1.00;;;;;;5185425;28;20021;-31
2024/01/09 07:48:56;;;;;;;20.63;10.60;;;-7.90;1.00;;;;;;5172169;28;20034;-31
2024/01/09 07:51:27;;;;;;;23.93;11.73;;;-7.80;1.00;;;;;;5188313;28;20331;-31
2024/01/09 07:53:59;;;;;;;22.77;10.70;;;-7.80;1.00;;;;;;5188724;28;20222;-31
2024/01/09 07:56:35;;;;;;;23.13;10.83;;;-7.70;1.00;;;;;;5188732;28;20229;-31
2024/01/09 07:59:09;;;;;;;20.67;10.30;;;-7.70;1.00;;;;;;5188577;28;20302;-31
2024/01/09 08:01:40;;;;;;;23.00;11.03;;;-7.60;1.00;;;;;;5179788;28;20034;-31
2024/01/09 08:04:17;;;;;;;21.17;10.73;;;-7.60;1.00;;;;;;5188770;28;20042;-31
2024/01/09 08:06:51;;;;;;;27.03;11.33;;;-7.50;1.00;;;;;;5188496;28;20044;-31
2024/01/09 08:09:27;;;;;;;22.07;11.13;;;-7.50;1.00;;;;;;5188327;28;20371;-31
2024/01/09 08:12:00;;;;;;;21.03;10.90;;;-7.40;1.00;;;;;;5188508;28;20225;-31
2024/01/09 08:14:32;;;;;;;20.10;11.18;;;-7.40;1.00;;;;;;5188916;28;20030;-31
2024/01/09 08:17:08;;;;;;;19.23;10.07;;;-7.40;1.00;;;;;;5167848;28;20026;-31
2024/01/09 08:19:39;;;;;;;23.93;10.47;;;-7.30;1.00;;;;;;5188257;28;20329;-31
2024/01/09 08:22:11;;;;;;;22.97;11.00;;;-7.30;1.00;;;;;;5181585;28;20034;-31
2024/01/09 08:24:42;;;;;;;22.93;10.27;;;-7.20;1.00;;;;;;5185322;28;20041;-31
2024/01/09 08:27:13;;;;;;;17.97;10.10;;;-7.20;1.00;;;;;;5188597;28;20038;-31
2024/01/09 08:29:47;;;;;;;21.13;11.20;;;-7.10;1.00;;;;;;5187985;28;20042;-31
2024/01/09 08:32:22;;;;;;;23.85;10.85;;;-7.00;1.00;;;;;;5184447;28;20037;-31
2024/01/09 08:34:53;;;;;;;22.33;10.70;;;-6.90;1.00;;;;;;5187402;28;20328;-31
2024/01/09 08:37:24;;;;;;;18.87;10.43;;;-6.80;1.00;;;;;;5188144;28;20292;-31
2024/01/09 08:39:59;;;;;;;21.27;10.47;;;-6.70;1.00;;;;;;5184633;28;20376;-31
2024/01/09 08:42:32;;;;;;;25.87;11.23;;;-6.60;1.00;;;;;;5185392;28;20022;-31
2024/01/09 08:45:04;;;;;;;21.90;9.80;;;-6.40;1.00;;;;;;5178470;28;20038;-31
2024/01/09 08:47:37;;;;;;;23.93;11.07;;;-6.20;1.00;;;;;;5188197;28;20037;-31
2024/01/09 08:50:11;;;;;;;17.35;8.13;;;-6.10;1.00;;;;;;5188341;28;20040;-31
2024/01/09 08:52:42;;;;;;;;;;;-6.00;1.00;;;;;;5176591;28;20238;-31
2024/01/09 08:55:13;;;;;;;18.97;10.20;;;-6.00;1.00;;;;;;5167842;28;19912;-31
2024/01/09 08:57:49;;;;;;;17.97;9.67;;;-5.90;1.00;;;;;;5165716;28;20294;-31
2024/01/09 09:00:20;;;;;;;19.07;10.40;;;-5.70;1.00;;;;;;5143679;28;20041;-31
2024/01/09 09:02:54;;;;;;;28.73;13.47;;;-5.70;1.00;;;;;;5145359;28;20336;-31
2024/01/09 09:05:27;;;;;;;23.25;11.07;;;-5.50;1.00;;;;;;5167633;28;20050;-31
2024/01/09 09:08:01;;;;;;;20.65;10.32;;;-5.50;1.00;;;;;;5167147;28;20048;-31
2024/01/09 09:10:32;;;;;;;22.73;10.25;;;-5.40;1.00;;;;;;5167468;28;20230;-30
2024/01/09 09:13:04;;;;;;;24.13;11.03;;;-5.50;1.00;;;;;;5150328;28;20054;-31
2024/01/09 09:15:36;;;;;;;24.37;11.90;;;-5.60;1.00;;;;;;5164425;28;20331;-30
2024/01/09 09:18:07;;;;;;;20.40;10.33;;;-5.40;1.00;;;;;;5150120;28;20272;-30
2024/01/09 09:20:38;;;;;;;23.87;11.50;;;-5.40;1.00;;;;;;5167342;28;20030;-30
2024/01/09 09:23:09;;;;;;;27.30;13.30;;;-5.40;1.00;;;;;;5167341;28;20041;-30
2024/01/09 09:25:43;;;;;;;31.83;11.57;;;-5.50;1.00;;;;;;5167115;28;20219;-31
2024/01/09 09:28:14;;;;;;;20.70;10.07;;;-5.60;1.00;;;;;;5168359;28;20041;-30
2024/01/09 09:30:45;;;;;;;24.83;11.67;;;-5.50;1.00;;;;;;5146245;28;20350;-32
2024/01/09 09:33:22;;;;;;;29.23;12.53;;;-5.60;1.00;;;;;;5149252;28;20046;-31
2024/01/09 09:35:55;;;;;;;32.63;16.00;;;-5.50;1.00;;;;;;5150322;28;20053;-31
2024/01/09 09:38:26;;;;;;;22.50;10.88;;;-5.40;1.00;;;;;;5167934;28;20022;-31
2024/01/09 09:40:57;;;;;;;24.23;12.70;;;-5.40;1.00;;;;;;5166545;28;20326;-31
2024/01/09 09:43:34;;;;;;;23.40;11.03;;;-5.30;1.00;;;;;;5167428;28;20033;-31
2024/01/09 09:46:11;;;;;;;23.60;11.33;;;-5.20;1.00;;;;;;5146211;28;20044;-31
2024/01/09 09:48:43;;;;;;;19.80;10.33;;;-5.30;1.00;;;;;;5166297;28;20049;-31
2024/01/09 09:51:17;;;;;;;21.90;11.70;;;-5.30;1.00;;;;;;5167356;28;20250;-31
2024/01/09 09:53:49;;;;;;;24.77;11.07;;;-5.20;1.00;;;;;;5166791;28;20042;-31
2024/01/09 09:56:24;;;;;;;22.73;11.23;;;-5.00;1.00;;;;;;5166912;28;20388;-30
2024/01/09 09:58:55;;;;;;;22.57;12.67;;;-5.00;1.00;;;;;;5170517;28;20029;-30
2024/01/09 10:01:28;;;;;;;25.77;11.60;;;-4.80;1.00;;;;;;5167516;28;20026;-30
2024/01/09 10:04:06;;;;;;;19.20;11.03;;;-5.10;1.00;;;;;;5150892;28;20027;-30
2024/01/09 10:06:40;;;;;;;26.27;11.67;;;-4.90;1.00;;;;;;5164930;28;20451;-30
2024/01/09 10:09:14;;;;;;;28.03;12.53;;;-4.90;1.00;;;;;;5149235;28;20023;-30
2024/01/09 10:11:48;;;;;;;;;;;-4.50;1.00;;;;;;5136045;28;20343;-30
2024/01/09 10:14:19;;;;;;;19.80;11.32;;;-4.50;1.00;;;;;;5153749;28;19905;-31
2024/01/09 10:16:55;;;;;;;29.03;11.80;;;-4.30;1.00;;;;;;5167087;28;20327;-31
2024/01/09 10:19:28;;;;;;;19.00;10.63;;;-4.20;1.00;;;;;;5168142;28;20415;-30
2024/01/09 10:21:59;;;;;;;27.17;11.85;;;-4.40;12.50;;;;;;5168038;28;20034;-30
2024/01/09 10:24:36;;;;;;;26.77;12.00;;;-4.90;1.00;;;;;;5171058;28;20449;-32
2024/01/09 10:27:13;;;;;;;21.10;10.60;;;-4.90;1.00;;;;;;5151480;28;20030;-31
2024/01/09 10:29:48;;;;;;;25.67;11.40;;;-4.90;1.00;;;;;;5149558;28;20030;-31
2024/01/09 10:32:19;;;;;;;26.37;10.83;;;-5.00;1.00;;;;;;5165288;28;20262;-32
2024/01/09 10:34:51;;;;;;;24.97;11.80;;;-4.80;1.00;;;;;;5151967;28;20041;-31
2024/01/09 10:37:25;;;;;;;23.73;11.00;;;-4.50;1.00;;;;;;5169717;28;20056;-31
2024/01/09 10:39:56;;;;;;;25.77;11.95;;;-4.50;1.00;;;;;;5170030;28;20326;-32
2024/01/09 10:42:30;;;;;;;22.17;11.30;;;-4.50;1.00;;;;;;5169800;28;20045;-31
2024/01/09 10:45:04;;;;;;;20.43;10.60;;;-4.40;1.00;;;;;;5168416;28;20042;-31
2024/01/09 10:47:38;;;;;;;;;;;-4.50;1.00;;;;;;5161775;28;20081;-31
2024/01/09 10:50:10;;;;;;;26.50;12.83;;;-4.30;1.00;;;;;;5155012;28;19925;-31
2024/01/09 10:52:46;;;;;;;24.90;12.17;;;-4.20;1.00;;;;;;5157600;28;20034;-31
2024/01/09 10:55:23;;;;;;;25.97;11.73;;;-4.20;1.00;;;;;;5165934;28;20034;-31
2024/01/09 10:57:58;;;;;;;21.40;10.30;;;-4.40;1.00;;;;;;5166340;28;20034;-31
2024/01/09 11:00:31;;;;;;;23.07;11.77;;;-4.30;1.00;;;;;;5151450;28;21358;-31
2024/01/09 11:03:05;;;;;;;22.17;10.87;;;-4.30;1.00;;;;;;5162751;28;20044;-31
2024/01/09 11:05:37;;;;;;;24.17;11.53;;;-4.10;1.00;;;;;;5152042;28;20051;-31
2024/01/09 11:08:16;;;;;;;15.03;9.00;;;-4.00;1.00;;;;;;5150465;28;20237;-30
2024/01/09 11:10:50;;;;;;;23.70;11.83;;;-4.00;1.00;;;;;;5169082;28;20022;-30
2024/01/09 11:13:25;;;;;;;17.67;9.67;;;-4.00;1.00;;;;;;5151872;28;20026;-30
2024/01/09 11:15:58;;;;;;;21.13;10.80;;;-3.90;1.00;;;;;;5147854;28;20110;-30
2024/01/09 11:18:36;;;;;;;29.07;10.97;;;-3.90;1.00;;;;;;5166845;28;20098;-30
2024/01/09 11:21:11;;;;;;;21.80;9.83;;;-3.80;1.00;;;;;;5150278;28;20050;-30
2024/01/09 11:23:54;;;;;;;21.83;10.93;;;-3.80;1.00;;;;;;5168971;28;20030;-30
2024/01/09 11:26:31;;;;;;;20.63;9.57;;;-3.70;1.00;;;;;;5169144;28;20196;-30
2024/01/09 11:29:10;;;;;;;24.33;12.13;;;-3.50;1.00;;;;;;5152136;28;20034;-30
2024/01/09 11:31:47;;;;;;;21.53;9.73;;;-3.40;1.00;;;;;;5148304;28;20034;-30
2024/01/09 11:34:27;;;;;;;15.00;7.67;;;-3.10;1.00;;;;;;5128692;28;20034;-30
2024/01/09 11:36:59;;;;;;;18.13;9.20;;;-3.30;1.00;;;;;;5157726;28;20049;-30
2024/01/09 11:39:32;;;;;;;11.50;7.00;;;-3.40;1.00;;;;;;5157672;28;20259;-30
2024/01/09 11:42:10;;;;;;;16.50;7.60;;;-3.30;1.00;;;;;;5169963;28;20030;-30
2024/01/09 11:44:41;;;;;;;16.87;8.70;;;-3.10;1.00;;;;;;5170282;28;20038;-31
2024/01/09 11:47:12;;;;;;;18.07;9.10;;;-3.00;1.00;;;;;;5165013;28;20042;-30
2024/01/09 11:49:49;;;;;;;13.37;7.53;;;-3.10;1.00;;;;;;5169125;28;20038;-30
2024/01/09 11:52:22;;;;;;;21.40;9.55;;;-3.00;1.00;;;;;;5168738;28;20030;-30
2024/01/09 11:54:55;;;;;;;12.98;7.40;;;-2.80;1.00;;;;;;5168664;28;20226;-30
2024/01/09 11:57:26;;;;;;;17.23;8.80;;;-3.00;1.00;;;;;;5167140;28;20038;-30
2024/01/09 12:00:05;;;;;;;17.00;7.23;;;-3.00;1.00;;;;;;5150984;28;20030;-30
2024/01/09 12:02:40;;;;;;;17.30;8.10;;;-2.90;1.00;;;;;;5167596;28;20042;-31
2024/01/09 12:05:11;;;;;;;19.60;8.47;;;-2.60;1.00;;;;;;5147540;28;20150;-31
2024/01/09 12:07:46;;;;;;;17.97;8.00;;;-2.90;1.00;;;;;;5161693;28;20057;-30
2024/01/09 12:10:24;;;;;;;22.70;9.27;;;-3.00;1.00;;;;;;5151357;28;20025;-30
2024/01/09 12:13:04;;;;;;;18.58;8.65;;;-2.80;1.00;;;;;;5168241;28;20034;-31
2024/01/09 12:15:38;;;;;;;19.67;8.50;;;-2.70;1.00;;;;;;5157793;28;20041;-31
2024/01/09 12:18:09;;;;;;;14.82;7.50;;;-2.50;1.00;;;;;;5150861;28;20338;-31
2024/01/09 12:20:41;;;;;;;20.08;9.02;;;-2.20;1.00;;;;;;5150339;28;20049;-31
2024/01/09 12:23:13;;;;;;;22.73;8.77;;;-2.10;1.00;;;;;;5149742;28;20034;-31
2024/01/09 12:25:47;;;;;;;17.30;8.30;;;-1.80;1.00;;;;;;5151134;28;20236;-31
2024/01/09 12:28:19;;;;;;;16.75;8.52;;;-2.00;1.00;;;;;;5166890;28;20044;-31
2024/01/09 12:30:53;;;;;;;25.97;8.83;;;-2.00;1.00;;;;;;5146827;28;20049;-30
2024/01/09 12:33:27;;;;;;;25.13;10.27;;;-1.70;1.00;;;;;;5164156;28;20261;-31
2024/01/09 12:35:58;;;;;;;32.78;10.07;;;-1.50;1.00;;;;;;5171390;28;20034;-31
2024/01/09 12:38:30;;;;;;;26.38;10.50;;;-1.50;1.00;;;;;;5163740;28;20038;-33
2024/01/09 12:41:07;;;;;;;19.27;10.25;;;-1.70;1.00;;;;;;5166103;28;20036;-30
2024/01/09 12:43:41;;;;;;;21.70;10.10;;;-1.90;1.00;;;;;;5154562;28;20245;-30
2024/01/09 12:46:13;;;;;;;19.67;9.15;;;-1.90;1.00;;;;;;5144495;28;20384;-30
2024/01/09 12:48:47;;;;;;;20.42;8.95;;;-1.90;1.00;;;;;;5159968;28;20033;-31
2024/01/09 12:51:19;;;;;;;19.27;10.03;;;-2.30;1.00;;;;;;5167633;28;20030;-31
2024/01/09 12:53:52;;;;;;;22.10;10.37;;;-2.30;1.00;;;;;;5168228;28;20045;-31
2024/01/09 12:56:28;;;;;;;17.50;9.23;;;-2.20;1.00;;;;;;5145699;28;20039;-31
2024/01/09 12:59:04;;;;;;;17.13;8.53;;;-2.20;1.00;;;;;;5166665;28;20360;-30
2024/01/09 13:01:37;;;;;;;20.00;9.05;;;-2.20;1.00;;;;;;5170780;28;20028;-30
2024/01/09 13:04:09;;;;;;;20.15;9.70;;;-2.30;1.00;;;;;;5184251;28;20049;-30
2024/01/09 13:06:41;;;;;;;20.20;9.75;;;-2.20;1.00;;;;;;5166741;28;20041;-30
2024/01/09 13:09:12;;;;;;;21.87;9.40;;;-1.90;44.90;;;;;;5167473;28;20345;-31
2024/01/09 13:11:44;;;;;;;25.08;11.38;;;-1.90;1.00;;;;;;5167012;28;20352;-32
2024/01/09 13:14:18;;;;;;;14.50;8.60;;;-1.70;1.00;;;;;;5166792;28;20044;-32